Airfield :
LOGIN :

Register | Disclaimer

   EN    FR    IT 

 










Legend :    VFR   Marginal VFR   IFR   Intensive IFR   Very Intensive IFR
Visi :
Ceiling :
>= 8 km
>= 3000ft
5 to 8 km
1000 to 3000 ft
1500m to 5 km
500 to 1000 ft
800 to 1500m
200 to 500 ft
< 800m
< 200 ft
Symbols :   Thunderstorms  Fog  Heavy snow  Heavy precipitations  Wind > 20 kt
SIGMETs :     Misc.  Thunderstorms  Icing  Turbulence  Mountain Waves  Volcanic Ashes






- Airport Elevation : 184 ft
- IATA code : BRU


EBBR - Bruxelles

CURRENT METAR :
  • 101950Z 03008KT 9999 -RA SCT004 BKN006 06/06 Q1008 TEMPO 4000 -RADZ

EXPIRED METARs :
  • 101920Z 03008KT 9999 -RA SCT004 BKN006 06/06 Q1007 TEMPO 4000 -RADZ
  • 101850Z 01007KT 320V040 7000 -RA SCT003 BKN005 06/06 Q1007 TEMPO 4000 -RADZ
  • 101820Z 01010KT 3500 RA SCT003 BKN005 06/06 Q1007 TEMPO 2500 RA SCT002 BKN004
  • 101750Z 02010KT 4000 RA SCT003 BKN005 07/07 Q1007 TEMPO 2500 RA SCT002 BKN004
  • 101720Z 02008KT 2500 RA FEW002 BKN005 BKN012 08/07 Q1007 TEMPO 4000 RA SCT005 BKN012
  • 101650Z 04006KT 5000 RA SCT005 BKN012 08/07 Q1008 TEMPO 2500 RA BKN004

TAF TAF EBBR
Valid from the 10 at 18:00 until the 12 at 00:00 UTC


101710Z 1018/1124 03008KT 6000 -RADZ SCT004 BKN008
TEMPO 1018/1106 2500 DZRA BR SCT002 BKN004
BECMG 1108/1110 BKN012
BECMG 1110/1112 BKN025
PROB30
TEMPO 1114/1121 4500 -SHRAGS -SHRASN BKN014TCU
BECMG 1122/1124 30004KT



MET'MAP, your aeronautical weather chart ! - Copyright ORBIFLY December 2007 - Disclaimer

ORBIFLY MET'MAP TEAM :

Programming & Development : Alexandra Zaïnal
Concept & original design : Baudouin d'Aumeries
Assistance for programming : Marc-Olivier Méhu
Technical & hardware support : Manuel Goepfert

Contact : metmap@orbifly.com




SOURCES & CREDITS :

   NOAA